Time;durP1;ratioP1;P1;durP2;ratioP2;P2;SDS_P1;SDS_P2;PMS_P1;PMS_P2;Temp;Humidity;BMP_temperature;BMP_pressure;BME280_temperature;BME280_humidity;BME280_pressure;Samples;Min_cycle;Max_cycle;Signal;HPM_P1;HPM_P2
2023/05/06 00:00:21;;;;;;;;;;;;;;;9.11;71.00;98645.23;103706;1308;22517;-87
2023/05/06 00:10:52;;;;;;;;;;;;;;;9.04;70.98;98654.48;103446;1314;24276;-86
2023/05/06 00:14:18;;;;;;;;;;;;;;;8.98;71.48;98650.38;102846;1329;124219;-87
2023/05/06 00:17:44;;;;;;;;;;;;;;;8.98;71.81;98656.06;103365;1324;26585;-87
2023/05/06 00:20:47;;;;;;;;;;;;;;;8.96;71.72;98655.10;103479;1310;123343;-86
2023/05/06 00:24:39;;;;;;;;;;;;;;;8.93;71.74;98652.30;103041;1326;23627;-87
2023/05/06 00:32:09;;;;;;;;;;;;;;;8.90;71.71;98647.27;103806;1308;544450;-86
2023/05/06 00:35:38;;;;;;;;;;;;;;;8.85;71.89;98642.54;105624;1306;26019;-86
2023/05/06 00:38:45;;;;;;;;;;;;;;;;;;;;;
2023/05/06 00:42:37;;;;;;;;;;;;;;;8.80;72.17;98632.77;105290;1298;22871;-86
2023/05/06 00:45:42;;;;;;;;;;;;;;;8.78;72.41;98628.05;100449;1317;5456662;-87
2023/05/06 00:53:07;;;;;;;;;;;;;;;8.72;72.58;98620.06;103732;1312;22741;-86
2023/05/06 01:00:36;;;;;;;;;;;;;;;8.69;73.34;98617.85;104493;1291;545679;-86
2023/05/06 01:04:03;;;;;;;;;;;;;;;8.63;73.50;98620.94;105964;1307;123557;-86
2023/05/06 01:07:34;;;;;;;;;;;;;;;8.59;73.94;98619.89;105486;1307;23840;-86
2023/05/06 01:21:48;;;;;;;;;;;;;;;8.46;74.44;98624.35;103617;1322;123579;-87
2023/05/06 01:24:55;;;;;;;;;;;;;;;8.42;74.22;98618.08;103165;1330;24606;-86
2023/05/06 01:32:50;;;;;;;;;;;;;;;8.36;74.70;98619.89;103691;1304;544099;-87
2023/05/06 01:36:07;;;;;;;;;;;;;;;;;;;;;
2023/05/06 01:43:14;;;;;;;;;;;;;;;8.29;74.74;98618.05;105216;1294;22591;-87
2023/05/06 01:49:44;;;;;;;;;;;;;;;8.28;75.09;98621.15;104726;1308;124213;-87
2023/05/06 01:53:14;;;;;;;;;;;;;;;8.28;75.31;98624.69;104506;1300;22554;-87
2023/05/06 02:00:11;;;;;;;;;;;;;;;8.28;75.39;98621.27;104254;1316;24297;-86
2023/05/06 02:03:40;;;;;;;;;;;;;;;;;;;;;
2023/05/06 02:07:01;;;;;;;;;;;;;;;;;;;;;
2023/05/06 02:14:05;;;;;;;;;;;;;;;8.24;75.50;98618.64;103129;1320;123322;-85
2023/05/06 02:17:34;;;;;;;;;;;;;;;;;;;;;
2023/05/06 02:24:49;;;;;;;;;;;;;;;8.20;76.21;98619.45;103314;1313;23790;-87
2023/05/06 02:39:13;;;;;;;;;;;;;;;8.14;76.35;98605.08;105817;1299;123418;-89
2023/05/06 02:53:16;;;;;;;;;;;;;;;8.12;76.52;98588.61;103967;1307;544741;-86
2023/05/06 02:57:01;;;;;;;;;;;;;;;;;;;;;
2023/05/06 03:04:04;;;;;;;;;;;;;;;8.07;76.92;98583.91;104934;1292;123631;-86
2023/05/06 03:22:16;;;;;;;;;;;;;;;8.05;77.77;98585.64;105126;1290;123198;-86
2023/05/06 03:40:36;;;;;;;;;;;;;;;8.13;78.30;98587.26;103897;1321;123466;-85
2023/05/06 03:47:22;;;;;;;;;;;;;;;8.21;77.91;98590.81;99949;1323;5490136;-84
2023/05/06 03:50:47;;;;;;;;;;;;;;;8.24;77.87;98590.06;104051;1322;123905;-86
2023/05/06 03:58:15;;;;;;;;;;;;;;;8.27;77.91;98593.28;104106;1307;547405;-86
2023/05/06 04:05:47;;;;;;;;;;;;;;;8.29;77.65;98598.34;104093;1305;544480;-85
2023/05/06 04:12:42;;;;;;;;;;;;;;;8.26;77.93;98606.40;106370;1299;22635;-86
2023/05/06 04:16:11;;;;;;;;;;;;;;;8.29;78.16;98610.00;106399;1278;123294;-85
2023/05/06 04:19:37;;;;;;;;;;;;;;;8.32;78.15;98609.50;101471;1305;5451423;-86
2023/05/06 04:23:04;;;;;;;;;;;;;;;8.36;78.03;98608.25;104909;1313;22945;-85
2023/05/06 04:37:04;;;;;;;;;;;;;;;8.64;78.37;98608.27;105852;1305;22578;-86
2023/05/06 04:41:04;;;;;;;;;;;;;;;8.74;78.23;98610.89;104841;1312;123158;-85
2023/05/06 04:44:32;;;;;;;;;;;;;;;8.83;78.58;98609.23;104608;1315;25423;-87
2023/05/06 04:47:57;;;;;;;;;;;;;;;8.92;78.35;98611.23;100714;1316;5481908;-86
2023/05/06 04:51:24;;;;;;;;;;;;;;;9.00;78.08;98613.00;104173;1320;124231;-87
2023/05/06 04:54:50;;;;;;;;;;;;;;;9.06;77.72;98618.05;103501;1320;22559;-88
2023/05/06 04:58:17;;;;;;;;;;;;;;;9.11;77.82;98615.25;103548;1329;123686;-87
2023/05/06 05:05:44;;;;;;;;;;;;;;;9.30;77.21;98605.73;104039;1308;545215;-87
2023/05/06 05:12:40;;;;;;;;;;;;;;;9.41;76.64;98595.83;104593;1316;22565;-86
2023/05/06 05:19:32;;;;;;;;;;;;;;;9.59;76.38;98586.02;100754;1316;5429149;-86
2023/05/06 05:22:45;;;;;;;;;;;;;;;;;;;;;
2023/05/06 05:48:02;;;;;;;;;;;;;;;10.15;73.99;98569.41;99624;1329;5476244;-88
2023/05/06 06:02:25;;;;;;;;;;;;;;;10.63;72.58;98582.52;104858;1311;22550;-86
2023/05/06 06:05:53;;;;;;;;;;;;;;;10.81;72.97;98585.94;104420;1310;22540;-86
2023/05/06 06:08:53;;;;;;;;;;;;;;;11.06;72.63;98580.73;100229;1323;5447173;-87
2023/05/06 06:16:47;;;;;;;;;;;;;;;11.37;70.89;98559.58;103620;1323;547597;-87
2023/05/06 06:20:14;;;;;;;;;;;;;;;11.45;70.68;98557.33;105697;1305;24422;-88
2023/05/06 06:27:11;;;;;;;;;;;;;;;11.53;69.55;98555.86;104746;1302;22571;-87
2023/05/06 06:30:13;;;;;;;;;;;;;;;11.58;69.30;98561.98;100377;1322;5456825;-88
2023/05/06 06:45:02;;;;;;;;;;;;;;;11.77;68.01;98554.73;105264;1309;22661;-87
2023/05/06 06:48:04;;;;;;;;;;;;;;;11.90;68.28;98545.29;104731;1319;22572;-88
2023/05/06 07:02:59;;;;;;;;;;;;;;;12.37;67.28;98542.04;105245;1308;22537;-87
2023/05/06 07:20:50;;;;;;;;;;;;;;;12.98;66.15;98535.86;103848;1314;546167;-88
2023/05/06 07:27:37;;;;;;;;;;;;;;;13.27;65.29;98531.31;104440;1312;123954;-87
2023/05/06 07:34:32;;;;;;;;;;;;;;;13.33;65.42;98515.46;100320;1313;5464512;-89
2023/05/06 07:37:32;;;;;;;;;;;;;;;;;;;;;
2023/05/06 07:41:04;;;;;;;;;;;;;;;;;;;;;
2023/05/06 07:44:47;;;;;;;;;;;;;;;13.60;64.46;98509.58;103340;1324;22563;-88
2023/05/06 07:54:31;;;;;;;;;;;;;;;;;;;;;
2023/05/06 07:58:12;;;;;;;;;;;;;;;13.92;63.57;98497.57;102873;1326;124422;-90
2023/05/06 08:01:25;;;;;;;;;;;;;;;;;;;;;
2023/05/06 08:04:34;;;;;;;;;;;;;;;14.14;63.42;98483.27;103541;1326;124908;-87
2023/05/06 08:07:54;;;;;;;;;;;;;;;;;;;;;
2023/05/06 08:11:22;;;;;;;;;;;;;;;;;;;;;
2023/05/06 08:15:13;;;;;;;;;;;;;;;14.69;63.03;98475.50;103505;1323;22808;-91
2023/05/06 08:18:41;;;;;;;;;;;;;;;14.92;63.01;98478.17;103606;1326;22584;-89
2023/05/06 08:22:09;;;;;;;;;;;;;;;15.22;63.05;98467.91;103331;1313;124570;-92
2023/05/06 08:24:35;;;;;;;;;;;;;;;;;;;;;
2023/05/06 08:27:51;;;;;;;;;;;;;;;15.53;60.80;98459.31;103140;1331;124572;-90
2023/05/06 08:31:45;;;;;;;;;;;;;;;15.55;60.94;98463.31;102466;1334;24330;-88
2023/05/06 08:34:37;;;;;;;;;;;;;;;;;;;;;
2023/05/06 08:38:24;;;;;;;;;;;;;;;15.66;60.43;98454.29;102256;1336;22695;-88
2023/05/06 08:41:25;;;;;;;;;;;;;;;15.76;60.56;98455.02;102404;1331;123316;-87
2023/05/06 08:44:53;;;;;;;;;;;;;;;15.81;60.77;98459.45;102637;1333;25433;-89
2023/05/06 08:51:37;;;;;;;;;;;;;;;;;;;;;
2023/05/06 08:55:06;;;;;;;;;;;;;;;;;;;;;
2023/05/06 09:03:01;;;;;;;;;;;;;;;16.01;60.49;98454.05;104260;1309;558593;-90
2023/05/06 09:13:56;;;;;;;;;;;;;;;16.22;59.97;98437.25;104223;1298;544400;-89
2023/05/06 09:16:44;;;;;;;;;;;;;;;16.15;60.04;98436.41;106587;1286;123043;-87
2023/05/06 09:20:39;;;;;;;;;;;;;;;16.14;60.07;98433.72;106615;1297;22653;-91
2023/05/06 09:23:53;;;;;;;;;;;;;;;;;;;;;
2023/05/06 09:27:20;;;;;;;;;;;;;;;;;;;;;
2023/05/06 09:30:51;;;;;;;;;;;;;;;;;;;;;
2023/05/06 09:33:45;;;;;;;;;;;;;;;16.24;60.79;98406.40;106252;1274;123236;-89
2023/05/06 09:36:57;;;;;;;;;;;;;;;;;;;;;
2023/05/06 09:40:28;;;;;;;;;;;;;;;16.25;60.72;98397.33;106354;1295;123791;-89
2023/05/06 09:43:47;;;;;;;;;;;;;;;;;;;;;
2023/05/06 09:47:15;;;;;;;;;;;;;;;;;;;;;
2023/05/06 09:50:38;;;;;;;;;;;;;;;;;;;;;
2023/05/06 09:54:30;;;;;;;;;;;;;;;16.61;60.26;98370.81;104470;1299;124204;-89
2023/05/06 09:57:24;;;;;;;;;;;;;;;;;;;;;
2023/05/06 10:01:12;;;;;;;;;;;;;;;16.80;60.05;98352.58;104010;1320;24486;-90
2023/05/06 10:03:58;;;;;;;;;;;;;;;;;;;;;
2023/05/06 10:07:27;;;;;;;;;;;;;;;;;;;;;
2023/05/06 10:11:15;;;;;;;;;;;;;;;17.40;58.23;98335.71;103398;1316;123822;-85
2023/05/06 10:14:33;;;;;;;;;;;;;;;17.55;58.54;98332.17;103295;1309;22699;-85
2023/05/06 10:17:46;;;;;;;;;;;;;;;;;;;;;
2023/05/06 10:21:00;;;;;;;;;;;;;;;;;;;;;
2023/05/06 10:24:38;;;;;;;;;;;;;;;;;;;;;
2023/05/06 10:28:10;;;;;;;;;;;;;;;17.83;57.35;98299.80;103037;1328;24279;-85
2023/05/06 10:31:30;;;;;;;;;;;;;;;17.79;57.73;98296.23;103400;1324;22599;-84
2023/05/06 10:34:35;;;;;;;;;;;;;;;;;;;;;
2023/05/06 10:38:08;;;;;;;;;;;;;;;17.62;57.33;98286.88;103885;1316;22744;-84
2023/05/06 10:41:27;;;;;;;;;;;;;;;17.47;56.95;98281.13;104217;1311;124604;-88
2023/05/06 10:44:14;;;;;;;;;;;;;;;;;;;;;
2023/05/06 10:47:18;;;;;;;;;;;;;;;17.17;58.30;98278.45;104490;1313;123834;-85
2023/05/06 10:51:09;;;;;;;;;;;;;;;17.04;59.01;98278.75;104612;1309;24293;-86
2023/05/06 10:54:01;;;;;;;;;;;;;;;;;;;;;
2023/05/06 10:57:38;;;;;;;;;;;;;;;;;;;;;
2023/05/06 11:00:45;;;;;;;;;;;;;;;;;;;;;
2023/05/06 11:04:07;;;;;;;;;;;;;;;;;;;;;
2023/05/06 11:08:06;;;;;;;;;;;;;;;;;;;;;
2023/05/06 11:11:35;;;;;;;;;;;;;;;;;;;;;
2023/05/06 11:14:55;;;;;;;;;;;;;;;16.23;64.95;98343.22;105101;1291;26482;-89
2023/05/06 11:18:26;;;;;;;;;;;;;;;;;;;;;
2023/05/06 11:21:42;;;;;;;;;;;;;;;;;;;;;
2023/05/06 11:25:12;;;;;;;;;;;;;;;15.39;69.17;98371.70;104423;1299;22562;-90
2023/05/06 11:28:49;;;;;;;;;;;;;;;;;;;;;
2023/05/06 11:31:59;;;;;;;;;;;;;;;;;;;;;
2023/05/06 11:35:29;;;;;;;;;;;;;;;;;;;;;
2023/05/06 11:42:36;;;;;;;;;;;;;;;;;;;;;
2023/05/06 11:46:15;;;;;;;;;;;;;;;;;;;;;
2023/05/06 11:49:58;;;;;;;;;;;;;;;14.47;76.83;98354.86;106117;1300;22595;-88
2023/05/06 11:53:24;;;;;;;;;;;;;;;14.35;77.47;98354.97;105120;1306;124044;-88
2023/05/06 11:56:50;;;;;;;;;;;;;;;14.21;77.66;98364.20;100504;1301;5501067;-90
2023/05/06 12:19:45;;;;;;;;;;;;;;;;;;;;;
2023/05/06 12:23:43;;;;;;;;;;;;;;;13.50;82.42;98372.45;105608;1304;124230;-90
2023/05/06 12:27:14;;;;;;;;;;;;;;;13.46;82.68;98362.91;105041;1311;22614;-90
2023/05/06 12:42:01;;;;;;;;;;;;;;;13.46;84.07;98323.02;103791;1320;544253;-91
2023/05/06 12:45:18;;;;;;;;;;;;;;;13.44;84.42;98311.48;105355;1307;25445;-91
2023/05/06 12:49:17;;;;;;;;;;;;;;;13.40;85.11;98315.35;106354;1297;123569;-90
2023/05/06 13:06:36;;;;;;;;;;;;;;;13.15;86.79;98318.52;105508;1300;123749;-91
2023/05/06 13:10:31;;;;;;;;;;;;;;;13.11;87.38;98325.83;106101;1298;22594;-90
2023/05/06 13:13:59;;;;;;;;;;;;;;;13.08;87.57;98315.60;105636;1285;22634;-90
2023/05/06 13:17:13;;;;;;;;;;;;;;;;;;;;;
2023/05/06 13:20:29;;;;;;;;;;;;;;;13.02;88.48;98295.87;104846;1303;22546;-89
2023/05/06 13:24:16;;;;;;;;;;;;;;;12.94;88.99;98282.55;104377;1297;125314;-91
2023/05/06 13:27:17;;;;;;;;;;;;;;;;;;;;;
2023/05/06 13:30:54;;;;;;;;;;;;;;;;;;;;;
2023/05/06 13:34:35;;;;;;;;;;;;;;;12.80;89.69;98314.44;103349;1311;22881;-89
2023/05/06 13:42:06;;;;;;;;;;;;;;;12.74;90.71;98324.01;103624;1323;545274;-89
2023/05/06 13:52:09;;;;;;;;;;;;;;;12.63;91.76;98285.58;104843;1299;25581;-92
2023/05/06 13:56:00;;;;;;;;;;;;;;;12.60;91.95;98295.71;100270;1319;5522710;-91
2023/05/06 13:59:28;;;;;;;;;;;;;;;12.58;91.79;98307.17;103951;1319;124448;-90
2023/05/06 14:02:54;;;;;;;;;;;;;;;12.57;92.04;98319.67;104233;1303;23266;-90
2023/05/06 14:06:21;;;;;;;;;;;;;;;12.55;92.34;98312.02;104060;1319;124074;-90
2023/05/06 14:09:47;;;;;;;;;;;;;;;12.57;92.83;98308.31;104255;1319;25388;-90
2023/05/06 14:13:13;;;;;;;;;;;;;;;12.56;93.00;98302.85;104053;1307;124016;-90
2023/05/06 14:20:41;;;;;;;;;;;;;;;12.60;93.03;98302.48;103957;1300;545962;-90
2023/05/06 14:30:35;;;;;;;;;;;;;;;;;;;;;
2023/05/06 14:44:59;;;;;;;;;;;;;;;;;;;;;
2023/05/06 14:52:19;;;;;;;;;;;;;;;13.14;93.54;98295.66;104434;1317;558175;-90
2023/05/06 14:56:35;;;;;;;;;;;;;;;13.53;93.73;98302.48;106311;1299;23447;-90
2023/05/06 15:00:07;;;;;;;;;;;;;;;13.91;94.00;98294.31;105946;1302;123783;-89
2023/05/06 15:03:35;;;;;;;;;;;;;;;14.26;92.64;98292.27;106055;1283;22885;-91
2023/05/06 15:10:30;;;;;;;;;;;;;;;14.61;90.94;98291.80;105253;1310;22551;-90
2023/05/06 15:13:32;;;;;;;;;;;;;;;14.73;90.05;98292.83;105073;1298;123855;-89
2023/05/06 15:20:26;;;;;;;;;;;;;;;14.77;88.99;98293.66;104483;1317;24387;-87
2023/05/06 15:27:22;;;;;;;;;;;;;;;;;;;;;
2023/05/06 15:31:05;;;;;;;;;;;;;;;14.99;87.44;98288.84;107443;1280;124861;-90
2023/05/06 15:33:45;;;;;;;;;;;;;;;;;;;;;
2023/05/06 15:37:06;;;;;;;;;;;;;;;;;;;;;
2023/05/06 15:40:59;;;;;;;;;;;;;;;14.99;86.90;98280.28;100951;1308;5471045;-89
2023/05/06 15:43:49;;;;;;;;;;;;;;;15.36;86.74;98281.38;104651;1312;22698;-89
2023/05/06 15:47:42;;;;;;;;;;;;;;;15.73;86.39;98282.14;105413;1286;124531;-89
2023/05/06 15:50:46;;;;;;;;;;;;;;;;;;;;;
2023/05/06 15:54:18;;;;;;;;;;;;;;;16.20;84.22;98273.02;104151;1316;124411;-88
2023/05/06 15:57:06;;;;;;;;;;;;;;;;;;;;;
2023/05/06 16:00:04;;;;;;;;;;;;;;;;;;;;;
2023/05/06 16:03:42;;;;;;;;;;;;;;;;;;;;;
2023/05/06 16:06:34;;;;;;;;;;;;;;;;;;;;;
2023/05/06 16:09:52;;;;;;;;;;;;;;;;;;;;;
2023/05/06 16:13:18;;;;;;;;;;;;;;;;;;;;;
2023/05/06 16:17:09;;;;;;;;;;;;;;;16.13;78.22;98283.02;104419;1292;22555;-88
2023/05/06 16:20:21;;;;;;;;;;;;;;;;;;;;;
2023/05/06 16:24:02;;;;;;;;;;;;;;;15.43;80.33;98280.91;105219;1306;123065;-89
2023/05/06 16:27:28;;;;;;;;;;;;;;;15.19;80.26;98279.14;105283;1301;22574;-88
2023/05/06 16:30:55;;;;;;;;;;;;;;;14.97;81.24;98281.55;105409;1297;124108;-89
2023/05/06 16:33:43;;;;;;;;;;;;;;;14.76;81.62;98284.84;105761;1302;25764;-88
2023/05/06 16:37:14;;;;;;;;;;;;;;;;;;;;;
2023/05/06 16:41:06;;;;;;;;;;;;;;;14.58;83.02;98279.20;105661;1288;24247;-90
2023/05/06 16:44:33;;;;;;;;;;;;;;;14.61;83.21;98282.33;105183;1309;22633;-87
2023/05/06 16:47:25;;;;;;;;;;;;;;;;;;;;;
2023/05/06 16:51:05;;;;;;;;;;;;;;;;;;;;;
2023/05/06 16:54:44;;;;;;;;;;;;;;;14.17;83.76;98301.00;104405;1318;124229;-89
2023/05/06 16:57:23;;;;;;;;;;;;;;;;;;;;;
2023/05/06 17:01:15;;;;;;;;;;;;;;;13.95;84.01;98312.23;104525;1303;124139;-88
2023/05/06 17:04:14;;;;;;;;;;;;;;;;;;;;;
2023/05/06 17:07:34;;;;;;;;;;;;;;;;;;;;;
2023/05/06 17:14:22;;;;;;;;;;;;;;;;;;;;;
2023/05/06 17:18:00;;;;;;;;;;;;;;;;;;;;;
2023/05/06 17:20:58;;;;;;;;;;;;;;;14.29;82.12;98305.32;104279;1310;22591;-90
2023/05/06 17:24:42;;;;;;;;;;;;;;;14.15;82.05;98300.82;104247;1322;124491;-87
2023/05/06 17:27:54;;;;;;;;;;;;;;;;;;;;;
2023/05/06 17:31:36;;;;;;;;;;;;;;;13.95;82.98;98312.07;105065;1297;124098;-86
2023/05/06 17:35:01;;;;;;;;;;;;;;;13.86;82.83;98310.45;104245;1322;22667;-87
2023/05/06 17:38:27;;;;;;;;;;;;;;;13.75;82.78;98311.08;104083;1322;23502;-86
2023/05/06 17:41:28;;;;;;;;;;;;;;;13.63;83.11;98305.52;103834;1324;24268;-86
2023/05/06 17:45:14;;;;;;;;;;;;;;;13.50;83.63;98306.08;103454;1329;22651;-89
2023/05/06 17:48:08;;;;;;;;;;;;;;;13.39;83.85;98310.20;103564;1328;124371;-87
2023/05/06 17:56:08;;;;;;;;;;;;;;;13.12;84.64;98312.77;104169;1301;544379;-88
2023/05/06 17:59:21;;;;;;;;;;;;;;;;;;;;;
2023/05/06 18:03:02;;;;;;;;;;;;;;;12.86;85.47;98326.55;105568;1309;24013;-87
2023/05/06 18:06:30;;;;;;;;;;;;;;;12.74;85.90;98326.30;104880;1298;124081;-88
2023/05/06 18:09:59;;;;;;;;;;;;;;;12.64;85.99;98325.27;100788;1314;5471294;-89
2023/05/06 18:12:39;;;;;;;;;;;;;;;;;;;;;
2023/05/06 18:16:30;;;;;;;;;;;;;;;12.51;86.62;98332.91;103817;1326;23337;-89
2023/05/06 18:19:58;;;;;;;;;;;;;;;12.47;86.87;98334.02;102950;1335;124060;-87
2023/05/06 18:22:46;;;;;;;;;;;;;;;;;;;;;
2023/05/06 18:30:41;;;;;;;;;;;;;;;12.31;87.30;98340.98;104181;1302;544775;-89
2023/05/06 18:34:09;;;;;;;;;;;;;;;12.21;87.43;98341.11;106428;1292;22519;-88
2023/05/06 19:13:22;;;;;;;;;;;;;;;11.55;90.59;98382.47;104341;1313;544657;-87
2023/05/06 19:16:43;;;;;;;;;;;;;;;11.49;91.07;98386.34;106328;1298;24206;-87
2023/05/06 19:20:13;;;;;;;;;;;;;;;11.48;91.56;98387.95;105870;1301;123752;-89
2023/05/06 19:23:14;;;;;;;;;;;;;;;;;;;;;
2023/05/06 19:30:03;;;;;;;;;;;;;;;;;;;;;
2023/05/06 19:33:36;;;;;;;;;;;;;;;11.46;91.82;98400.73;105794;1287;25300;-88
2023/05/06 19:40:17;;;;;;;;;;;;;;;;;;;;;
2023/05/06 19:43:05;;;;;;;;;;;;;;;;;;;;;
2023/05/06 19:50:07;;;;;;;;;;;;;;;11.45;92.71;98402.31;104421;1315;124033;-89
2023/05/06 19:56:38;;;;;;;;;;;;;;;;;;;;;
2023/05/06 20:00:21;;;;;;;;;;;;;;;11.45;92.99;98408.36;104465;1317;22542;-88
2023/05/06 20:03:34;;;;;;;;;;;;;;;;;;;;;
2023/05/06 20:07:01;;;;;;;;;;;;;;;;;;;;;
2023/05/06 20:14:42;;;;;;;;;;;;;;;11.47;93.12;98409.58;103595;1307;544808;-88
2023/05/06 20:21:39;;;;;;;;;;;;;;;11.44;93.37;98415.71;104735;1306;23215;-90
2023/05/06 20:28:08;;;;;;;;;;;;;;;11.39;93.43;98417.71;100188;1321;5439835;-88
2023/05/06 20:39:27;;;;;;;;;;;;;;;11.39;93.12;98422.55;104008;1304;545080;-86
2023/05/06 20:42:59;;;;;;;;;;;;;;;11.35;93.15;98424.59;105975;1303;124196;-87
2023/05/06 20:46:26;;;;;;;;;;;;;;;11.32;92.92;98419.60;106379;1297;23928;-87
2023/05/06 20:49:56;;;;;;;;;;;;;;;11.31;93.22;98422.67;105901;1282;123888;-87
2023/05/06 21:11:14;;;;;;;;;;;;;;;11.25;92.34;98432.80;103991;1305;546016;-87
2023/05/06 21:14:41;;;;;;;;;;;;;;;11.23;92.55;98434.11;106350;1290;124352;-88
2023/05/06 21:21:40;;;;;;;;;;;;;;;11.21;92.23;98444.13;106419;1288;22624;-87
2023/05/06 21:25:08;;;;;;;;;;;;;;;11.21;92.29;98448.52;102377;1295;5629300;-91
2023/05/06 21:32:01;;;;;;;;;;;;;;;11.20;92.70;98450.81;104911;1305;124150;-88
2023/05/06 21:39:03;;;;;;;;;;;;;;;;;;;;;
2023/05/06 21:42:48;;;;;;;;;;;;;;;11.17;92.15;98457.64;106217;1294;22602;-89
2023/05/06 21:45:40;;;;;;;;;;;;;;;;;;;;;
2023/05/06 21:49:06;;;;;;;;;;;;;;;;;;;;;
2023/05/06 21:52:52;;;;;;;;;;;;;;;11.12;92.09;98464.68;101922;1302;5470050;-90
2023/05/06 21:56:00;;;;;;;;;;;;;;;;;;;;;
2023/05/06 21:59:54;;;;;;;;;;;;;;;11.10;91.80;98468.77;105937;1286;23440;-89
2023/05/06 22:06:36;;;;;;;;;;;;;;;;;;;;;
2023/05/06 22:10:02;;;;;;;;;;;;;;;;;;;;;
2023/05/06 22:17:09;;;;;;;;;;;;;;;11.08;91.63;98463.26;104346;1317;22642;-88
2023/05/06 22:20:03;;;;;;;;;;;;;;;;;;;;;
2023/05/06 22:23:40;;;;;;;;;;;;;;;;;;;;;
2023/05/06 22:26:54;;;;;;;;;;;;;;;;;;;;;
2023/05/06 22:30:21;;;;;;;;;;;;;;;11.03;91.91;98465.05;103567;1325;22588;-89
2023/05/06 22:40:50;;;;;;;;;;;;;;;;;;;;;
2023/05/06 22:44:46;;;;;;;;;;;;;;;11.02;92.08;98473.42;106301;1293;124055;-89
2023/05/06 22:48:14;;;;;;;;;;;;;;;11.00;92.49;98483.35;105861;1303;22654;-89
2023/05/06 22:51:46;;;;;;;;;;;;;;;10.89;91.81;98483.45;105614;1289;23219;-89
2023/05/06 22:58:19;;;;;;;;;;;;;;;10.55;91.74;98484.58;105855;1296;22654;-88
2023/05/06 23:16:29;;;;;;;;;;;;;;;10.11;92.48;98489.22;107154;1286;26672;-89
2023/05/06 23:19:36;;;;;;;;;;;;;;;;;;;;;
2023/05/06 23:23:16;;;;;;;;;;;;;;;;;;;;;
2023/05/06 23:26:58;;;;;;;;;;;;;;;9.90;92.60;98497.77;101925;1294;5445263;-88
2023/05/06 23:30:28;;;;;;;;;;;;;;;9.80;92.99;98507.59;106480;1291;24347;-90
2023/05/06 23:37:27;;;;;;;;;;;;;;;9.67;93.68;98507.54;106336;1297;22700;-89
2023/05/06 23:43:54;;;;;;;;;;;;;;;9.58;93.71;98502.81;106072;1284;124889;-88
2023/05/06 23:47:47;;;;;;;;;;;;;;;9.53;93.82;98499.52;105043;1308;22555;-89
2023/05/06 23:50:53;;;;;;;;;;;;;;;9.47;93.85;98498.99;105055;1305;124021;-87
2023/05/06 23:54:24;;;;;;;;;;;;;;;;;;;;;
2023/05/06 23:57:46;;;;;;;;;;;;;;;;;;;;;
